Diamante, Brazil
Current Conditions -  °F | °C
As of 10:00 PM on Friday 19 Dec 2014 (Local Time) from SBJU Reporting Station
Scattered Clouds Scattered Clouds  
Wind Chill: 84°   Ceiling: Unl
Heat Index: 91°   Visibility: 6mi
Dew Point: 73°   Wind: 5mph
Humidity: 70%   Direction: 90°E
Pressure: 30.03"   Gusts: NA
Location:  7.43°S, 38.26°W
Report Text: SBJU 200100Z 09004KT 9999 SCT020 SCT022 29/23 Q1017
Loading
Personal Weather Stations






























Interactive Weather Map New forecast layout! Learn more

10-Day Weather Forecast

Advertisements
Track Severe Weather on mobile